Time;durP1;ratioP1;P1;durP2;ratioP2;P2;SDS_P1;SDS_P2;PMS_P1;PMS_P2;Temp;Humidity;BMP_temperature;BMP_pressure;BME280_temperature;BME280_humidity;BME280_pressure;Samples;Min_cycle;Max_cycle;Signal;HPM_P1;HPM_P2
2021/11/17 02:28:25;;;;;;;0.47;0.47;;;18.20;70.70;;;;;;6065066;23;20019;-68
2021/11/17 02:31:17;;;;;;;1.25;0.63;;;18.30;70.70;;;;;;6064560;23;20011;-68
2021/11/17 02:33:46;;;;;;;0.60;0.60;;;18.30;70.70;;;;;;6104309;23;20011;-67
2021/11/17 02:36:14;;;;;;;0.65;0.60;;;18.30;70.70;;;;;;6214395;23;20004;-68
2021/11/17 02:38:52;;;;;;;2.63;0.57;;;18.30;70.70;;;;;;6214582;23;20096;-67
2021/11/17 02:41:23;;;;;;;1.05;0.70;;;18.30;70.70;;;;;;6214792;23;20004;-67
2021/11/17 02:43:55;;;;;;;1.13;0.65;;;18.30;71.60;;;;;;6214777;23;20020;-67
2021/11/17 02:46:27;;;;;;;0.88;0.70;;;18.30;70.50;;;;;;6214625;23;19997;-67
2021/11/17 02:49:14;;;;;;;0.53;0.50;;;18.30;70.50;;;;;;6214368;23;20000;-68
2021/11/17 02:51:45;;;;;;;0.80;0.68;;;18.30;70.50;;;;;;6187896;23;20379;-67
2021/11/17 02:54:33;;;;;;;1.63;0.50;;;18.30;70.60;;;;;;6214741;23;20000;-68
2021/11/17 02:56:59;;;;;;;0.50;0.50;;;18.30;70.50;;;;;;6214644;23;20001;-67
2021/11/17 02:59:37;;;;;;;1.20;0.60;;;18.30;70.60;;;;;;6214649;23;20003;-67
2021/11/17 03:02:25;;;;;;;1.52;0.77;;;18.30;70.60;;;;;;6214660;23;20004;-68
2021/11/17 03:05:10;;;;;;;1.27;0.70;;;18.30;70.60;;;;;;6214177;23;20008;-68
2021/11/17 03:07:41;;;;;;;1.45;0.85;;;18.30;70.70;;;;;;6214314;23;20044;-67
2021/11/17 03:10:33;;;;;;;0.77;0.57;;;18.30;70.70;;;;;;6214634;23;20407;-68
2021/11/17 03:13:13;;;;;;;1.13;0.57;;;18.30;70.70;;;;;;6188055;23;20005;-68
2021/11/17 03:16:26;;;;;;;0.68;0.60;;;18.30;70.70;;;;;;6214449;23;20007;-68
2021/11/17 03:19:04;;;;;;;0.93;0.60;;;18.30;70.60;;;;;;6093015;23;20007;-67
2021/11/17 03:21:36;;;;;;;2.97;0.60;;;18.30;70.70;;;;;;6093383;23;20002;-67
2021/11/17 03:24:50;;;;;;;2.63;0.50;;;18.30;70.80;;;;;;6092516;23;20450;-67
2021/11/17 03:27:39;;;;;;;1.10;0.70;;;18.30;70.80;;;;;;6062620;23;20426;-67
2021/11/17 03:30:18;;;;;;;0.82;0.50;;;18.30;70.80;;;;;;6063363;23;20027;-68
2021/11/17 03:33:21;;;;;;;1.48;0.50;;;18.30;70.80;;;;;;6062930;23;20468;-67
2021/11/17 03:36:14;;;;;;;0.73;0.60;;;18.30;70.80;;;;;;6063135;23;20014;-68
2021/11/17 03:38:47;;;;;;;0.85;0.75;;;18.30;71.90;;;;;;6063356;23;20007;-67
2021/11/17 03:41:30;;;;;;;1.80;0.40;;;18.30;70.90;;;;;;6063482;23;20003;-67
2021/11/17 03:44:01;;;;;;;;;;;18.30;70.90;;;;;;6064331;23;20339;-67
2021/11/17 03:46:49;;;;;;;1.20;0.50;;;18.20;70.90;;;;;;6063991;23;19909;-67
2021/11/17 03:49:36;;;;;;;1.20;0.35;;;18.20;71.00;;;;;;6074070;23;20361;-68
2021/11/17 03:52:30;;;;;;;1.20;0.50;;;18.20;71.00;;;;;;6151960;23;20345;-67
2021/11/17 03:55:12;;;;;;;1.55;0.60;;;18.20;71.00;;;;;;6129229;23;20002;-67
2021/11/17 03:57:53;;;;;;;1.63;0.50;;;18.30;71.10;;;;;;6151656;23;20020;-67
2021/11/17 04:00:32;;;;;;;0.93;0.60;;;18.30;71.10;;;;;;6163962;23;20005;-68
2021/11/17 04:03:13;;;;;;;1.25;0.55;;;18.30;71.00;;;;;;6213765;23;20011;-67
2021/11/17 04:05:51;;;;;;;0.85;0.50;;;18.30;71.00;;;;;;6214187;23;20171;-67
2021/11/17 04:08:35;;;;;;;2.00;0.40;;;18.30;71.00;;;;;;6214270;23;20043;-67
2021/11/17 04:11:24;;;;;;;1.90;0.90;;;18.30;71.00;;;;;;6188431;23;20001;-68
2021/11/17 04:14:05;;;;;;;0.82;0.63;;;18.30;71.00;;;;;;6213614;23;20044;-67
2021/11/17 04:16:40;;;;;;;0.90;0.57;;;18.30;71.10;;;;;;6213832;23;20474;-67
2021/11/17 04:19:33;;;;;;;1.42;0.73;;;18.30;71.10;;;;;;6215213;23;20284;-68
2021/11/17 04:22:22;;;;;;;0.43;0.40;;;18.30;71.00;;;;;;6189404;23;19997;-68
2021/11/17 04:24:47;;;;;;;1.20;0.63;;;18.30;71.10;;;;;;6215753;23;20005;-67
2021/11/17 04:27:25;;;;;;;0.95;0.50;;;18.30;71.20;;;;;;6215520;23;20017;-67
2021/11/17 04:29:51;;;;;;;0.75;0.70;;;18.30;71.10;;;;;;6215687;23;20462;-67
2021/11/17 04:32:28;;;;;;;0.68;0.55;;;18.30;71.10;;;;;;6215572;23;20001;-68
2021/11/17 04:35:30;;;;;;;0.60;0.60;;;18.30;71.10;;;;;;6215747;23;20329;-68
2021/11/17 04:38:01;;;;;;;1.00;0.50;;;18.30;71.10;;;;;;6153583;23;20016;-68
2021/11/17 04:40:35;;;;;;;0.85;0.57;;;18.30;71.20;;;;;;6215851;23;19996;-68
2021/11/17 04:43:13;;;;;;;2.35;0.50;;;18.30;71.10;;;;;;6215838;23;20001;-68
2021/11/17 04:45:50;;;;;;;2.33;0.40;;;18.30;71.20;;;;;;6188838;23;20075;-68
2021/11/17 04:48:42;;;;;;;0.63;0.55;;;18.30;71.20;;;;;;6215863;23;20072;-67
2021/11/17 04:51:26;;;;;;;1.75;0.65;;;18.30;71.20;;;;;;6194651;23;20008;-68
2021/11/17 04:54:16;;;;;;;0.60;0.60;;;18.30;71.20;;;;;;6215724;23;20000;-68
2021/11/17 04:56:51;;;;;;;1.05;0.50;;;18.30;71.20;;;;;;6193407;23;20001;-67
2021/11/17 04:59:54;;;;;;;1.55;0.60;;;18.20;71.20;;;;;;6215390;23;20460;-67
2021/11/17 05:02:32;;;;;;;1.17;0.50;;;18.30;71.20;;;;;;6215635;23;20003;-67
2021/11/17 05:05:14;;;;;;;1.00;0.70;;;18.20;71.30;;;;;;6215585;23;20003;-68
2021/11/17 05:07:51;;;;;;;0.75;0.55;;;18.20;71.30;;;;;;6215708;23;20000;-67
2021/11/17 05:10:26;;;;;;;0.52;0.50;;;18.20;71.30;;;;;;6215727;23;20000;-68
2021/11/17 05:12:54;;;;;;;0.95;0.70;;;18.20;71.30;;;;;;6215537;23;20055;-68
2021/11/17 05:15:48;;;;;;;0.88;0.43;;;18.20;71.30;;;;;;6215240;23;20436;-67
2021/11/17 05:18:28;;;;;;;2.35;0.75;;;18.20;71.30;;;;;;6215397;23;20069;-67
2021/11/17 05:21:16;;;;;;;5.13;0.80;;;18.30;71.40;;;;;;6215406;23;20008;-67
2021/11/17 05:23:53;;;;;;;1.80;0.60;;;18.20;71.30;;;;;;6215330;23;20000;-67
2021/11/17 05:26:31;;;;;;;0.95;0.60;;;18.20;71.30;;;;;;6215368;23;20483;-67
2021/11/17 05:29:27;;;;;;;1.27;0.50;;;18.20;71.30;;;;;;6214874;23;20009;-67
2021/11/17 05:32:05;;;;;;;1.83;0.52;;;18.20;71.30;;;;;;6215382;23;20075;-67
2021/11/17 05:35:11;;;;;;;0.77;0.50;;;18.20;71.40;;;;;;6215346;23;20009;-67
2021/11/17 05:38:14;;;;;;;0.68;0.55;;;18.20;71.30;;;;;;6121159;23;20030;-67
2021/11/17 05:41:09;;;;;;;0.80;0.55;;;18.20;71.40;;;;;;6103026;23;20096;-67
2021/11/17 05:43:43;;;;;;;0.45;0.45;;;18.20;71.50;;;;;;6118782;23;20094;-67
2021/11/17 05:46:30;;;;;;;1.52;0.60;;;18.10;71.40;;;;;;6123477;23;20129;-67
2021/11/17 05:49:50;;;;;;;0.40;0.40;;;18.20;71.50;;;;;;6123245;23;20083;-67
2021/11/17 05:52:37;;;;;;;0.70;0.70;;;18.20;71.50;;;;;;6094027;23;20006;-68
2021/11/17 05:55:28;;;;;;;0.52;0.43;;;18.20;71.50;;;;;;6093894;23;20373;-67
2021/11/17 05:58:19;;;;;;;0.65;0.40;;;18.20;71.50;;;;;;6069597;23;20006;-67
2021/11/17 06:00:52;;;;;;;0.43;0.43;;;18.20;71.60;;;;;;6069816;23;20409;-67
2021/11/17 06:03:58;;;;;;;1.15;0.50;;;18.10;71.50;;;;;;6070060;23;20040;-68
2021/11/17 06:06:24;;;;;;;0.77;0.35;;;18.20;71.50;;;;;;6093980;23;20014;-67
2021/11/17 06:08:50;;;;;;;2.38;0.55;;;18.10;71.60;;;;;;6093909;23;20010;-67
2021/11/17 06:11:19;;;;;;;1.15;0.47;;;18.10;71.60;;;;;;6094028;23;20505;-67
2021/11/17 06:13:44;;;;;;;1.52;0.35;;;18.10;71.50;;;;;;6073642;23;20006;-67
2021/11/17 06:16:10;;;;;;;2.25;0.40;;;18.10;71.50;;;;;;6150953;23;20187;-67
2021/11/17 06:18:36;;;;;;;1.05;0.63;;;18.10;71.50;;;;;;6151097;23;20013;-67
2021/11/17 06:21:03;;;;;;;0.63;0.50;;;18.10;71.50;;;;;;6150658;23;20005;-67
2021/11/17 06:23:32;;;;;;;2.15;0.93;;;18.10;71.50;;;;;;6126278;23;20157;-67
2021/11/17 06:25:58;;;;;;;4.00;0.70;;;18.10;71.50;;;;;;6149421;23;20101;-67
2021/11/17 06:28:25;;;;;;;0.40;0.40;;;18.10;71.50;;;;;;6187072;23;20000;-67
2021/11/17 06:30:51;;;;;;;0.30;0.30;;;18.20;71.50;;;;;;6186641;23;20079;-67
2021/11/17 06:33:17;;;;;;;1.20;0.40;;;18.20;71.60;;;;;;6187056;23;20001;-67
2021/11/17 06:35:43;;;;;;;1.25;0.50;;;18.10;71.50;;;;;;6188134;23;20005;-67
2021/11/17 06:38:09;;;;;;;0.85;0.30;;;18.10;71.50;;;;;;6188139;23;20008;-67
2021/11/17 06:40:36;;;;;;;0.52;0.50;;;18.20;71.60;;;;;;6162947;23;20004;-67
2021/11/17 06:43:02;;;;;;;2.38;0.50;;;18.10;71.50;;;;;;6187961;23;20001;-68
2021/11/17 06:45:31;;;;;;;0.43;0.40;;;18.20;71.60;;;;;;6163610;23;20011;-68
2021/11/17 06:47:56;;;;;;;0.70;0.50;;;18.20;71.60;;;;;;6214633;23;20028;-67
2021/11/17 06:50:22;;;;;;;0.40;0.35;;;18.10;71.50;;;;;;6214556;23;20436;-67
2021/11/17 06:52:48;;;;;;;0.55;0.43;;;18.20;71.60;;;;;;6163228;23;20004;-67
2021/11/17 06:55:13;;;;;;;2.00;0.60;;;18.20;71.60;;;;;;6214177;23;19997;-68
2021/11/17 06:57:39;;;;;;;0.88;0.55;;;18.10;71.50;;;;;;6188039;23;20001;-67
2021/11/17 07:00:10;;;;;;;0.95;0.40;;;18.10;71.60;;;;;;6214459;23;20028;-67
2021/11/17 07:02:35;;;;;;;1.17;0.60;;;18.20;71.60;;;;;;6163651;23;20001;-69
2021/11/17 07:05:01;;;;;;;4.45;0.43;;;18.10;71.70;;;;;;6187801;23;20325;-70
2021/11/17 07:07:27;;;;;;;0.40;0.40;;;18.10;71.70;;;;;;6214704;23;20340;-70
2021/11/17 07:09:52;;;;;;;0.85;0.40;;;18.20;71.60;;;;;;6187606;23;20008;-70
2021/11/17 07:12:18;;;;;;;0.52;0.40;;;18.20;71.60;;;;;;6214511;23;20379;-70
2021/11/17 07:14:45;;;;;;;0.80;0.28;;;18.20;71.60;;;;;;6214610;23;20011;-70
2021/11/17 07:17:10;;;;;;;0.60;0.32;;;18.20;71.60;;;;;;6187957;23;20001;-70
2021/11/17 07:19:36;;;;;;;0.20;0.20;;;18.20;71.50;;;;;;6214489;23;20003;-70
2021/11/17 07:22:03;;;;;;;0.60;0.30;;;18.20;71.50;;;;;;6214442;23;19997;-70
2021/11/17 07:24:29;;;;;;;0.30;0.30;;;18.20;71.50;;;;;;6187959;23;20008;-70
2021/11/17 07:26:55;;;;;;;0.88;0.40;;;18.20;71.50;;;;;;6187610;23;20020;-70
2021/11/17 07:29:21;;;;;;;0.32;0.30;;;18.20;71.50;;;;;;6214378;23;20054;-70
2021/11/17 07:31:46;;;;;;;0.28;0.28;;;18.20;71.40;;;;;;6188095;23;20072;-70
2021/11/17 07:34:12;;;;;;;0.32;0.32;;;18.20;71.40;;;;;;6214224;23;20494;-70
2021/11/17 07:36:38;;;;;;;0.30;0.30;;;18.20;71.40;;;;;;6188199;23;20005;-70
2021/11/17 07:39:04;;;;;;;1.73;0.60;;;18.20;71.30;;;;;;6162616;23;20462;-70
2021/11/17 07:41:30;;;;;;;8.43;1.23;;;18.20;71.40;;;;;;6188082;23;20001;-70
2021/11/17 07:43:55;;;;;;;8.15;1.70;;;18.20;71.40;;;;;;6214406;23;20000;-70
2021/11/17 07:46:21;;;;;;;9.85;1.73;;;18.30;71.40;;;;;;6187511;23;20028;-70
2021/11/17 07:48:46;;;;;;;9.18;1.75;;;18.30;71.40;;;;;;6188233;23;20001;-70
2021/11/17 07:51:13;;;;;;;5.78;1.48;;;18.30;71.40;;;;;;6214291;23;20148;-70
2021/11/17 07:53:38;;;;;;;6.45;1.60;;;18.30;71.40;;;;;;6188388;23;20015;-70
2021/11/17 07:56:04;;;;;;;6.65;1.38;;;18.40;71.50;;;;;;6189822;23;20388;-70
2021/11/17 07:58:32;;;;;;;11.27;1.58;;;18.30;71.40;;;;;;6164793;23;20012;-70
2021/11/17 08:00:58;;;;;;;9.90;1.85;;;18.40;71.40;;;;;;6165132;23;20428;-70
2021/11/17 08:03:25;;;;;;;6.90;1.48;;;18.40;71.40;;;;;;6165200;23;20004;-70
2021/11/17 08:05:51;;;;;;;6.20;1.20;;;18.40;71.40;;;;;;6189845;23;20455;-70
2021/11/17 08:08:18;;;;;;;4.93;1.40;;;18.40;71.40;;;;;;6189603;23;20000;-70
2021/11/17 08:10:43;;;;;;;5.82;1.50;;;18.40;71.40;;;;;;6164885;23;20011;-70
2021/11/17 08:13:09;;;;;;;5.03;1.05;;;18.40;71.40;;;;;;6189613;23;20071;-70
2021/11/17 08:15:35;;;;;;;4.28;1.05;;;18.40;71.30;;;;;;6189699;23;20005;-70
2021/11/17 08:18:00;;;;;;;3.45;1.48;;;18.40;71.30;;;;;;6216023;23;20352;-70
2021/11/17 08:20:26;;;;;;;6.07;1.33;;;18.40;71.30;;;;;;6164757;23;20024;-70
2021/11/17 08:22:53;;;;;;;5.07;1.30;;;18.40;71.40;;;;;;6189259;23;20001;-70
2021/11/17 08:25:21;;;;;;;5.03;0.95;;;18.40;71.30;;;;;;6164825;23;20008;-70
2021/11/17 08:27:47;;;;;;;3.80;1.40;;;18.50;71.40;;;;;;6165130;23;20075;-70
2021/11/17 08:30:13;;;;;;;3.17;1.08;;;18.40;71.30;;;;;;6164606;23;20024;-70
2021/11/17 08:32:40;;;;;;;3.90;1.35;;;18.40;71.30;;;;;;6189736;23;20008;-70
2021/11/17 08:35:06;;;;;;;4.57;1.13;;;18.40;71.20;;;;;;6164565;23;20004;-70
2021/11/17 08:37:32;;;;;;;2.75;1.38;;;18.40;71.20;;;;;;6215734;23;20100;-70
2021/11/17 08:40:00;;;;;;;6.88;1.30;;;18.40;71.30;;;;;;6216043;23;20054;-70
2021/11/17 08:42:25;;;;;;;7.50;1.88;;;18.40;71.20;;;;;;6215884;23;20000;-70
2021/11/17 08:44:51;;;;;;;3.85;1.15;;;18.50;71.20;;;;;;6216058;23;20001;-70
2021/11/17 08:47:18;;;;;;;3.03;1.05;;;18.40;71.20;;;;;;6189869;23;20114;-70
2021/11/17 08:49:45;;;;;;;3.00;1.17;;;18.50;71.20;;;;;;6215824;23;20405;-70
2021/11/17 08:52:11;;;;;;;3.03;1.15;;;18.50;71.20;;;;;;6164365;23;20444;-70
2021/11/17 08:54:36;;;;;;;2.42;0.95;;;18.50;71.20;;;;;;6189593;23;20075;-70
2021/11/17 08:57:02;;;;;;;3.55;1.40;;;18.40;71.10;;;;;;6139582;23;20025;-70
2021/11/17 08:59:31;;;;;;;2.17;1.00;;;18.40;71.20;;;;;;6215964;23;20027;-70
2021/11/17 09:01:57;;;;;;;2.78;0.73;;;18.50;71.10;;;;;;6215803;23;19996;-70
2021/11/17 09:04:23;;;;;;;3.25;0.90;;;18.50;71.20;;;;;;6188876;23;20001;-70
2021/11/17 09:06:49;;;;;;;3.63;1.10;;;18.50;71.10;;;;;;6215302;23;20073;-70
2021/11/17 09:09:15;;;;;;;3.30;1.38;;;18.50;71.10;;;;;;6189136;23;20374;-70
2021/11/17 09:11:41;;;;;;;3.58;1.42;;;18.50;71.10;;;;;;6189337;23;20011;-70
2021/11/17 09:14:06;;;;;;;2.15;0.80;;;18.50;71.10;;;;;;6189143;23;20036;-70
2021/11/17 09:16:33;;;;;;;5.20;0.90;;;18.50;71.10;;;;;;6189100;23;20005;-70
2021/11/17 09:18:59;;;;;;;3.10;0.90;;;18.50;71.00;;;;;;6215412;23;20004;-70
2021/11/17 09:21:24;;;;;;;3.10;1.27;;;18.50;71.10;;;;;;6188567;23;20028;-70
2021/11/17 09:23:50;;;;;;;7.35;1.42;;;18.50;71.00;;;;;;6189125;23;20005;-70
2021/11/17 09:26:17;;;;;;;4.32;1.10;;;18.50;71.10;;;;;;6215059;23;20012;-70
2021/11/17 09:28:43;;;;;;;2.47;1.08;;;18.50;71.00;;;;;;6164821;23;20005;-70
2021/11/17 09:31:09;;;;;;;3.00;0.70;;;18.50;71.00;;;;;;6164136;23;20009;-70
2021/11/17 09:33:39;;;;;;;1.45;0.93;;;18.50;71.00;;;;;;6188856;23;20000;-70
2021/11/17 09:36:05;;;;;;;1.90;0.70;;;18.50;71.00;;;;;;6164999;23;20008;-70
2021/11/17 09:38:31;;;;;;;1.77;0.82;;;18.50;71.00;;;;;;6215272;23;20427;-70
2021/11/17 09:41:09;;;;;;;1.73;0.90;;;18.50;71.00;;;;;;6215244;23;20028;-70
2021/11/17 09:43:39;;;;;;;2.45;0.90;;;18.50;70.80;;;;;;6164831;23;20071;-70
2021/11/17 09:46:05;;;;;;;2.55;1.00;;;18.50;71.00;;;;;;6164953;23;20005;-70
2021/11/17 09:48:41;;;;;;;3.20;1.17;;;18.50;70.90;;;;;;6188950;23;20005;-70
2021/11/17 09:51:15;;;;;;;6.05;1.00;;;18.60;70.90;;;;;;6188272;23;20091;-70
2021/11/17 09:53:49;;;;;;;4.47;0.80;;;18.50;71.00;;;;;;6188673;23;20028;-70
2021/11/17 09:56:27;;;;;;;4.32;0.98;;;18.50;70.90;;;;;;6189343;23;20040;-70
2021/11/17 09:58:58;;;;;;;2.70;0.82;;;18.50;70.80;;;;;;6165534;23;20005;-70
2021/11/17 10:01:30;;;;;;;2.40;0.77;;;18.50;70.90;;;;;;6164890;23;20007;-70
2021/11/17 10:04:04;;;;;;;1.40;0.60;;;18.50;70.90;;;;;;6189648;23;19997;-70
2021/11/17 10:12:49;;;;;;;3.90;0.85;;;18.50;70.90;;;;;;6168681;23;20004;-70
2021/11/17 10:15:13;;;;;;;1.05;0.47;;;18.50;70.90;;;;;;6193262;23;20448;-70
2021/11/17 10:17:53;;;;;;;1.60;0.85;;;18.50;71.00;;;;;;6164867;23;20078;-70
2021/11/17 10:20:25;;;;;;;4.05;1.10;;;18.50;70.80;;;;;;6214523;23;20012;-70
2021/11/17 10:23:18;;;;;;;2.78;0.90;;;18.50;70.90;;;;;;6214977;23;19996;-70
2021/11/17 10:25:50;;;;;;;;;;;18.60;70.80;;;;;;6215548;23;20009;-70
2021/11/17 10:28:26;;;;;;;1.88;0.77;;;18.50;70.80;;;;;;6214774;23;19900;-70
2021/11/17 10:31:14;;;;;;;1.17;0.63;;;18.50;71.10;;;;;;6215256;23;20008;-70
2021/11/17 10:34:02;;;;;;;1.67;0.70;;;18.50;71.00;;;;;;6167269;23;20446;-70
2021/11/17 10:36:40;;;;;;;1.95;0.70;;;18.50;71.00;;;;;;6192468;23;20066;-70
2021/11/17 10:39:48;;;;;;;2.15;0.57;;;18.50;71.00;;;;;;6214788;23;20064;-70
2021/11/17 10:42:20;;;;;;;1.20;0.70;;;18.50;70.80;;;;;;6181640;23;20008;-70
2021/11/17 10:44:55;;;;;;;1.33;0.63;;;18.50;71.00;;;;;;6214901;23;20004;-70
2021/11/17 10:47:29;;;;;;;1.63;0.60;;;18.50;70.80;;;;;;6163392;23;20004;-70
2021/11/17 10:50:23;;;;;;;3.15;0.75;;;18.50;70.90;;;;;;6188186;23;20344;-70
2021/11/17 10:53:05;;;;;;;1.35;0.60;;;18.50;70.80;;;;;;6191679;23;20594;-70
2021/11/17 10:55:34;;;;;;;1.43;0.57;;;18.60;70.90;;;;;;6188259;23;20051;-70
2021/11/17 10:58:01;;;;;;;1.80;0.40;;;18.50;70.80;;;;;;6188108;23;20008;-70
2021/11/17 11:00:33;;;;;;;3.03;0.70;;;18.50;70.80;;;;;;6188060;23;20054;-70
2021/11/17 11:03:00;;;;;;;2.08;0.80;;;18.60;70.80;;;;;;6214273;23;20336;-70
2021/11/17 11:05:29;;;;;;;1.50;0.50;;;18.50;70.70;;;;;;6188118;23;19997;-70
2021/11/17 11:08:15;;;;;;;1.65;0.63;;;18.50;70.70;;;;;;6163738;23;20472;-70
2021/11/17 11:10:50;;;;;;;1.48;0.60;;;18.60;70.70;;;;;;6192346;23;20055;-70
2021/11/17 11:13:21;;;;;;;2.30;0.70;;;18.60;70.70;;;;;;6188470;23;20462;-70
2021/11/17 11:15:49;;;;;;;1.38;0.60;;;18.50;70.70;;;;;;6163642;23;20015;-70
2021/11/17 11:18:16;;;;;;;2.10;0.60;;;18.60;70.70;;;;;;6163010;23;20009;-70
2021/11/17 11:20:47;;;;;;;4.07;0.70;;;18.60;70.70;;;;;;6214645;23;19997;-70
2021/11/17 11:23:25;;;;;;;2.20;0.60;;;18.60;70.70;;;;;;6214583;23;20000;-70
2021/11/17 11:25:57;;;;;;;2.40;1.08;;;18.60;70.60;;;;;;6187756;23;20020;-70
2021/11/17 11:28:24;;;;;;;2.05;0.73;;;18.60;70.60;;;;;;6215848;23;20053;-70
2021/11/17 11:31:09;;;;;;;1.98;0.60;;;18.60;70.60;;;;;;6189761;23;20001;-70
2021/11/17 11:33:36;;;;;;;2.05;0.40;;;18.60;70.50;;;;;;6216405;23;20005;-70
2021/11/17 11:36:10;;;;;;;1.75;0.80;;;18.60;70.60;;;;;;6190208;23;20026;-70
2021/11/17 11:38:41;;;;;;;2.60;0.82;;;18.60;70.50;;;;;;6216374;23;20026;-70
2021/11/17 11:41:25;;;;;;;2.53;0.60;;;18.60;70.60;;;;;;6165429;23;20005;-70
2021/11/17 11:44:23;;;;;;;1.08;0.50;;;18.60;70.60;;;;;;6216455;23;19997;-70
2021/11/17 11:46:57;;;;;;;2.60;0.60;;;18.60;70.40;;;;;;6215963;23;20404;-70
2021/11/17 11:49:46;;;;;;;1.00;0.52;;;18.60;70.50;;;;;;6216419;23;20075;-70
2021/11/17 11:52:21;;;;;;;2.22;0.70;;;18.60;70.40;;;;;;6189824;23;20051;-70
2021/11/17 11:54:58;;;;;;;1.55;0.73;;;18.60;70.50;;;;;;6216377;23;20393;-70
2021/11/17 11:57:44;;;;;;;1.20;0.52;;;18.60;70.50;;;;;;6216215;23;20039;-70
2021/11/17 12:00:26;;;;;;;1.42;0.40;;;18.60;70.50;;;;;;6192852;23;20340;-70
2021/11/17 12:02:53;;;;;;;1.93;0.60;;;18.60;70.40;;;;;;6190511;23;20001;-70
2021/11/17 12:05:53;;;;;;;0.47;0.40;;;18.60;70.60;;;;;;6216401;23;20416;-70
2021/11/17 12:08:29;;;;;;;1.23;0.50;;;18.60;70.30;;;;;;6189820;23;20063;-70
2021/11/17 12:11:11;;;;;;;1.92;0.57;;;18.60;70.50;;;;;;6216073;23;20004;-70
2021/11/17 12:14:04;;;;;;;1.85;0.73;;;18.60;70.40;;;;;;6216076;23;20005;-70
2021/11/17 12:16:40;;;;;;;2.03;0.60;;;18.60;70.60;;;;;;6192238;23;20516;-70
2021/11/17 12:19:26;;;;;;;0.65;0.47;;;18.60;70.50;;;;;;6191437;23;20036;-70
2021/11/17 12:22:03;;;;;;;1.17;0.50;;;18.60;70.40;;;;;;6215928;23;20004;-70
2021/11/17 12:24:40;;;;;;;1.88;0.50;;;18.60;70.40;;;;;;6215895;23;20063;-70
2021/11/17 12:27:20;;;;;;;2.47;0.88;;;18.60;71.00;;;;;;6189600;23;20020;-70
2021/11/17 12:29:48;;;;;;;1.23;0.60;;;18.70;70.40;;;;;;6165084;23;20012;-70
2021/11/17 12:32:19;;;;;;;1.50;0.50;;;18.60;70.40;;;;;;6216070;23;20028;-70
2021/11/17 12:34:45;;;;;;;1.77;0.70;;;18.60;70.40;;;;;;6190064;23;20066;-70
2021/11/17 12:37:34;;;;;;;1.58;0.80;;;18.60;70.40;;;;;;6216324;23;20444;-70
2021/11/17 12:40:11;;;;;;;0.60;0.60;;;18.70;70.30;;;;;;6189284;23;20028;-70
2021/11/17 12:42:48;;;;;;;2.08;0.70;;;18.60;70.30;;;;;;6189331;23;20471;-70
2021/11/17 12:45:23;;;;;;;1.00;0.52;;;18.60;70.30;;;;;;6215578;23;20001;-70
2021/11/17 12:48:24;;;;;;;0.70;0.40;;;18.70;70.40;;;;;;6189247;23;20025;-70
2021/11/17 12:51:12;;;;;;;1.05;0.50;;;18.70;70.20;;;;;;6194682;23;20009;-70
2021/11/17 12:53:59;;;;;;;1.48;0.50;;;18.60;70.30;;;;;;6168689;23;20005;-70
2021/11/17 12:56:40;;;;;;;0.73;0.40;;;18.70;70.20;;;;;;6165403;23;20009;-70
2021/11/17 12:59:16;;;;;;;1.33;0.60;;;18.70;70.30;;;;;;6191338;23;20013;-70
2021/11/17 13:02:21;;;;;;;1.10;0.52;;;18.70;70.30;;;;;;6189814;23;20007;-70
2021/11/17 13:04:48;;;;;;;1.00;0.60;;;18.70;70.10;;;;;;6094369;23;20026;-70
2021/11/17 13:07:31;;;;;;;1.13;0.60;;;18.70;70.30;;;;;;6070675;23;20442;-70
2021/11/17 13:09:59;;;;;;;1.40;0.60;;;18.70;70.30;;;;;;6074243;23;20006;-70
2021/11/17 13:12:28;;;;;;;0.45;0.45;;;18.70;70.30;;;;;;6070154;23;20093;-70
2021/11/17 13:14:57;;;;;;;1.02;0.50;;;18.70;70.20;;;;;;6070425;23;20021;-70
2021/11/17 13:17:49;;;;;;;1.20;0.50;;;18.70;70.20;;;;;;6070987;23;20007;-70
2021/11/17 13:20:14;;;;;;;1.15;0.50;;;18.70;70.00;;;;;;6093005;23;20015;-70
2021/11/17 13:22:49;;;;;;;1.10;0.60;;;18.70;70.20;;;;;;6094371;23;20006;-70
2021/11/17 13:25:23;;;;;;;0.75;0.45;;;18.70;70.10;;;;;;6070685;23;20013;-70
2021/11/17 13:27:51;;;;;;;0.98;0.60;;;18.70;70.10;;;;;;6093998;23;20013;-70
2021/11/17 13:30:21;;;;;;;1.10;0.68;;;18.70;70.10;;;;;;6070532;23;20017;-70
2021/11/17 13:32:49;;;;;;;0.95;0.38;;;18.70;70.10;;;;;;6070291;23;20006;-70
2021/11/17 13:35:37;;;;;;;2.15;0.60;;;18.70;70.10;;;;;;6070477;23;20089;-70
2021/11/17 13:38:14;;;;;;;0.45;0.30;;;18.70;70.10;;;;;;6072054;23;20367;-70
2021/11/17 13:40:40;;;;;;;2.05;0.80;;;18.70;70.10;;;;;;6108986;23;20009;-70
2021/11/17 13:43:07;;;;;;;2.15;0.68;;;18.70;70.10;;;;;;6188656;23;20004;-70
2021/11/17 13:45:33;;;;;;;1.75;0.60;;;18.70;70.10;;;;;;6188987;23;20000;-70
2021/11/17 13:47:58;;;;;;;0.93;0.43;;;18.70;70.00;;;;;;6163894;23;20079;-70
2021/11/17 13:50:26;;;;;;;0.85;0.52;;;18.70;70.10;;;;;;6188468;23;20007;-70
2021/11/17 13:52:51;;;;;;;0.40;0.40;;;18.80;70.10;;;;;;6164149;23;20004;-70
2021/11/17 13:55:20;;;;;;;1.23;0.55;;;18.80;70.00;;;;;;6188866;23;20032;-70
2021/11/17 13:57:45;;;;;;;0.47;0.20;;;18.80;70.10;;;;;;6188158;23;20012;-70
2021/11/17 14:00:12;;;;;;;0.55;0.47;;;18.80;70.10;;;;;;6215149;23;20310;-70
2021/11/17 14:02:38;;;;;;;0.47;0.43;;;18.80;70.00;;;;;;6164116;23;20032;-70
2021/11/17 14:05:04;;;;;;;1.83;0.50;;;18.80;70.00;;;;;;6163847;23;20004;-70
2021/11/17 14:07:32;;;;;;;2.05;0.60;;;18.80;70.00;;;;;;6215063;23;20466;-70
2021/11/17 14:09:58;;;;;;;0.47;0.40;;;18.80;70.00;;;;;;6188804;23;20000;-70
2021/11/17 14:12:24;;;;;;;1.10;0.57;;;18.80;69.90;;;;;;6163934;23;20050;-70
2021/11/17 14:14:50;;;;;;;0.55;0.40;;;18.80;69.90;;;;;;6163674;23;20004;-70
2021/11/17 14:17:15;;;;;;;0.75;0.43;;;18.80;69.90;;;;;;6188787;23;20424;-70
2021/11/17 14:19:41;;;;;;;1.20;0.60;;;18.80;69.90;;;;;;6188382;23;20004;-70
2021/11/17 14:22:07;;;;;;;2.25;0.60;;;18.80;69.90;;;;;;6188629;23;20420;-70
2021/11/17 14:24:32;;;;;;;0.68;0.50;;;18.80;69.90;;;;;;6188019;23;20329;-70
2021/11/17 14:26:58;;;;;;;1.63;0.60;;;18.80;69.90;;;;;;6188244;23;20012;-70
2021/11/17 14:29:32;;;;;;;2.50;0.80;;;18.80;69.80;;;;;;6163848;23;20050;-70
2021/11/17 14:32:05;;;;;;;0.95;0.40;;;18.80;69.80;;;;;;6165049;23;20444;-70
2021/11/17 14:34:31;;;;;;;0.63;0.43;;;18.80;69.80;;;;;;6140074;23;20059;-70
2021/11/17 14:37:04;;;;;;;1.92;0.60;;;18.80;69.80;;;;;;6163380;23;20012;-70
2021/11/17 14:39:30;;;;;;;0.85;0.40;;;18.80;70.90;;;;;;6166099;23;20004;-70
2021/11/17 14:41:56;;;;;;;1.02;0.60;;;18.80;69.80;;;;;;6214872;23;20439;-70
2021/11/17 14:44:21;;;;;;;0.57;0.45;;;18.80;69.80;;;;;;6214718;23;20424;-70
2021/11/17 14:46:47;;;;;;;1.20;0.57;;;18.80;69.80;;;;;;6188391;23;20325;-70
2021/11/17 14:49:12;;;;;;;0.93;0.60;;;18.80;69.70;;;;;;6214787;23;20008;-70
2021/11/17 14:51:39;;;;;;;0.35;0.35;;;18.80;69.70;;;;;;6188179;23;20043;-70
2021/11/17 14:54:05;;;;;;;1.48;0.82;;;18.80;69.70;;;;;;6187963;23;20028;-70
2021/11/17 14:56:31;;;;;;;0.90;0.43;;;18.80;69.80;;;;;;6214756;23;20343;-70
2021/11/17 14:58:56;;;;;;;1.25;0.60;;;18.80;69.70;;;;;;6163261;23;20368;-70
2021/11/17 15:01:27;;;;;;;1.40;0.50;;;18.80;70.70;;;;;;6188322;23;20022;-70
2021/11/17 15:03:53;;;;;;;2.85;0.88;;;18.80;69.60;;;;;;6163487;23;20418;-70
2021/11/17 15:06:19;;;;;;;1.52;0.80;;;18.80;69.70;;;;;;6188156;23;20032;-70
2021/11/17 15:08:45;;;;;;;1.52;0.68;;;18.80;69.70;;;;;;6187690;23;20001;-70
2021/11/17 15:11:11;;;;;;;1.35;0.60;;;18.80;69.60;;;;;;6214601;23;20015;-70
2021/11/17 15:13:36;;;;;;;0.98;0.60;;;18.80;69.60;;;;;;6188129;23;20028;-70
2021/11/17 15:16:02;;;;;;;0.95;0.63;;;18.80;69.60;;;;;;6188045;23;20004;-70
2021/11/17 15:18:28;;;;;;;1.80;0.82;;;18.80;69.60;;;;;;6214486;23;20008;-70
2021/11/17 15:20:54;;;;;;;2.53;0.60;;;18.80;69.60;;;;;;6188084;23;20007;-70
2021/11/17 15:23:20;;;;;;;2.72;0.40;;;18.80;69.60;;;;;;6163119;23;20009;-70
2021/11/17 15:25:46;;;;;;;0.57;0.40;;;18.80;69.60;;;;;;6187582;23;20028;-70
2021/11/17 15:28:24;;;;;;;1.75;0.50;;;18.80;69.60;;;;;;6188302;23;20000;-70
2021/11/17 15:30:52;;;;;;;1.05;0.50;;;18.90;69.60;;;;;;6163444;23;20396;-70
2021/11/17 15:33:18;;;;;;;1.05;0.50;;;18.80;69.60;;;;;;6163624;23;20001;-70
2021/11/17 15:35:44;;;;;;;1.73;0.60;;;18.80;69.50;;;;;;6187860;23;20075;-70
2021/11/17 15:38:10;;;;;;;1.05;0.45;;;18.80;69.50;;;;;;6162704;23;20009;-70
2021/11/17 15:40:38;;;;;;;1.65;0.68;;;18.80;69.50;;;;;;6188156;23;20071;-70
2021/11/17 15:43:03;;;;;;;1.60;0.90;;;18.80;69.50;;;;;;6214399;23;20092;-70
2021/11/17 15:45:29;;;;;;;1.05;0.57;;;18.80;69.50;;;;;;6187907;23;20031;-70
2021/11/17 15:47:55;;;;;;;0.80;0.50;;;18.80;69.50;;;;;;6163222;23;20001;-70
2021/11/17 15:50:27;;;;;;;0.68;0.40;;;18.80;69.50;;;;;;6187945;23;20008;-70
2021/11/17 15:52:53;;;;;;;;;;;18.90;69.50;;;;;;6164372;23;20079;-70
2021/11/17 15:55:19;;;;;;;1.23;0.50;;;18.80;69.30;;;;;;6214433;23;20425;-70